Pagrindinis puslapis
METAR-TAF:

METAR-TAF

Oro uostai :

Rionė, Danija

platuma: 55-04N, ilguma: 014-45E, Aukštis: 16 m

Dabartinis oras

Ataskaita buvo paskelbta 30 minutes, ne 22:20 UTC
Vėjas 13 kt iš Rytų
Temperatūra 6°C
Drėgmė 87%
Slėgis 996 hPa
Matomumas 10 km arba daugiau

METAR: EKRN 152220Z AUTO 08013KT 9999 OVC035/// 06/04 Q0996

Laikas: 00:50 (22:50 UTC)

Prognozė

Ataskaita buvo paskelbta 2 valandos ir 46 minutes, ne 20:04 UTC
Prognozė galioja nuo 15 metu 21 UTC su 16 metu 06 UTC
Vėjas 8 kt iš Rytų
Matomumas 10 km arba daugiau
Su prošvaistėmis ne aukštis 3000 ft
Laikinai
nuo 15 metu 21 UTC su 16 metu 06 UTC
Matomumas: 4000 m
Su prošvaistėmis ne aukštis 800 ft
Išsisklaidę debesys ne aukštis 2000 ft, Liūtiniai kamuoliniai debesys.
lietus
Tapsmas
nuo 16 metu 03 UTC su 16 metu 06 UTC
Vėjas 12 kt iš Šiaurės Rytų

TAF: EKRN 152004Z 1521/1606 10008KT 9999 BKN030 TEMPO 1521/1606 4000 RA BKN008 SCT020CB BECMG 1603/1606 04012KT

Orai ataskaitas ir orų prognozės (METAR, TAF).

turimą stotys yra geltonos ir raudonos taškus žemėlapyje.

Perkelti pele per norėdami pamatyti stoties vardą.

Tada spustelėkite, norėdami matyti oro stebėjimo ir prognozės.

Norėdami pakeisti žemėlapį: spustelėkite ant žalios mygtukų su juodo kryžiaus žemyn,; žalią mygtuką su brūkšneliu, jei norite nutolinti; arba žalių rodyklių gretimoms žemėlapius.


METAR-TAF: